sensor_id;sensor_type;location;lat;lon;timestamp;P1;durP1;ratioP1;P2;durP2;ratioP2
61200;SDS011;47065;52.898;6.992;2022-11-20T00:00:49;30.50;;;15.90;;
61200;SDS011;47065;52.898;6.992;2022-11-20T00:03:15;26.92;;;13.68;;
61200;SDS011;47065;52.898;6.992;2022-11-20T00:05:42;24.77;;;13.43;;
61200;SDS011;47065;52.898;6.992;2022-11-20T00:08:07;31.17;;;16.45;;
61200;SDS011;47065;52.898;6.992;2022-11-20T00:10:35;24.38;;;14.20;;
61200;SDS011;47065;52.898;6.992;2022-11-20T00:13:02;23.75;;;13.73;;
61200;SDS011;47065;52.898;6.992;2022-11-20T00:15:28;22.45;;;14.60;;
61200;SDS011;47065;52.898;6.992;2022-11-20T00:17:53;23.05;;;14.18;;
61200;SDS011;47065;52.898;6.992;2022-11-20T00:20:19;26.33;;;15.30;;
61200;SDS011;47065;52.898;6.992;2022-11-20T00:22:45;25.58;;;14.98;;
61200;SDS011;47065;52.898;6.992;2022-11-20T00:25:10;27.45;;;15.20;;
61200;SDS011;47065;52.898;6.992;2022-11-20T00:27:36;23.88;;;14.05;;
61200;SDS011;47065;52.898;6.992;2022-11-20T00:30:02;26.52;;;15.07;;
61200;SDS011;47065;52.898;6.992;2022-11-20T00:32:29;24.70;;;13.90;;
61200;SDS011;47065;52.898;6.992;2022-11-20T00:34:54;20.88;;;12.52;;
61200;SDS011;47065;52.898;6.992;2022-11-20T00:37:20;26.45;;;15.07;;
61200;SDS011;47065;52.898;6.992;2022-11-20T00:39:46;28.25;;;15.32;;
61200;SDS011;47065;52.898;6.992;2022-11-20T00:42:11;29.58;;;14.60;;
61200;SDS011;47065;52.898;6.992;2022-11-20T00:44:37;26.13;;;15.02;;
61200;SDS011;47065;52.898;6.992;2022-11-20T00:47:03;28.10;;;15.93;;
61200;SDS011;47065;52.898;6.992;2022-11-20T00:49:29;25.83;;;15.13;;
61200;SDS011;47065;52.898;6.992;2022-11-20T00:51:54;26.05;;;14.57;;
61200;SDS011;47065;52.898;6.992;2022-11-20T00:54:20;28.83;;;15.63;;
61200;SDS011;47065;52.898;6.992;2022-11-20T00:56:46;29.27;;;16.10;;
61200;SDS011;47065;52.898;6.992;2022-11-20T00:59:11;30.10;;;14.90;;
61200;SDS011;47065;52.898;6.992;2022-11-20T01:01:37;22.70;;;14.65;;
61200;SDS011;47065;52.898;6.992;2022-11-20T01:04:03;33.92;;;18.67;;
61200;SDS011;47065;52.898;6.992;2022-11-20T01:06:29;24.77;;;15.15;;
61200;SDS011;47065;52.898;6.992;2022-11-20T01:08:58;28.05;;;15.73;;
61200;SDS011;47065;52.898;6.992;2022-11-20T01:11:27;25.20;;;14.90;;
61200;SDS011;47065;52.898;6.992;2022-11-20T01:13:54;30.02;;;14.05;;
61200;SDS011;47065;52.898;6.992;2022-11-20T01:16:26;24.00;;;13.60;;
61200;SDS011;47065;52.898;6.992;2022-11-20T01:18:52;25.77;;;14.05;;
61200;SDS011;47065;52.898;6.992;2022-11-20T01:21:27;26.23;;;14.18;;
61200;SDS011;47065;52.898;6.992;2022-11-20T01:23:55;23.00;;;13.57;;
61200;SDS011;47065;52.898;6.992;2022-11-20T01:26:24;26.33;;;14.30;;
61200;SDS011;47065;52.898;6.992;2022-11-20T01:28:52;23.60;;;14.48;;
61200;SDS011;47065;52.898;6.992;2022-11-20T01:31:24;27.27;;;14.10;;
61200;SDS011;47065;52.898;6.992;2022-11-20T01:33:52;23.50;;;12.45;;
61200;SDS011;47065;52.898;6.992;2022-11-20T01:36:20;23.40;;;13.45;;
61200;SDS011;47065;52.898;6.992;2022-11-20T01:38:47;22.40;;;12.77;;
61200;SDS011;47065;52.898;6.992;2022-11-20T01:41:15;25.33;;;13.73;;
61200;SDS011;47065;52.898;6.992;2022-11-20T01:44:00;21.10;;;13.23;;
61200;SDS011;47065;52.898;6.992;2022-11-20T01:46:26;25.25;;;14.02;;
61200;SDS011;47065;52.898;6.992;2022-11-20T01:51:55;17.70;;;11.50;;
61200;SDS011;47065;52.898;6.992;2022-11-20T01:54:25;22.42;;;12.32;;
61200;SDS011;47065;52.898;6.992;2022-11-20T01:56:57;22.52;;;14.27;;
61200;SDS011;47065;52.898;6.992;2022-11-20T01:59:25;25.73;;;13.98;;
61200;SDS011;47065;52.898;6.992;2022-11-20T02:01:53;26.73;;;13.70;;
61200;SDS011;47065;52.898;6.992;2022-11-20T02:04:19;26.17;;;14.18;;
61200;SDS011;47065;52.898;6.992;2022-11-20T02:06:51;19.50;;;12.88;;
61200;SDS011;47065;52.898;6.992;2022-11-20T02:09:19;25.30;;;12.85;;
61200;SDS011;47065;52.898;6.992;2022-11-20T02:11:45;22.83;;;12.18;;
61200;SDS011;47065;52.898;6.992;2022-11-20T02:14:11;22.98;;;13.05;;
61200;SDS011;47065;52.898;6.992;2022-11-20T02:16:37;23.25;;;13.35;;
61200;SDS011;47065;52.898;6.992;2022-11-20T02:19:09;21.17;;;12.55;;
61200;SDS011;47065;52.898;6.992;2022-11-20T02:21:53;21.58;;;12.80;;
61200;SDS011;47065;52.898;6.992;2022-11-20T02:24:21;20.85;;;13.10;;
61200;SDS011;47065;52.898;6.992;2022-11-20T02:29:23;23.85;;;13.18;;
61200;SDS011;47065;52.898;6.992;2022-11-20T02:32:19;23.27;;;13.48;;
61200;SDS011;47065;52.898;6.992;2022-11-20T02:34:46;23.77;;;13.02;;
61200;SDS011;47065;52.898;6.992;2022-11-20T02:37:12;23.05;;;13.05;;
61200;SDS011;47065;52.898;6.992;2022-11-20T02:39:38;26.45;;;13.15;;
61200;SDS011;47065;52.898;6.992;2022-11-20T02:42:06;19.77;;;12.55;;
61200;SDS011;47065;52.898;6.992;2022-11-20T02:44:32;24.77;;;13.02;;
61200;SDS011;47065;52.898;6.992;2022-11-20T02:46:58;25.75;;;14.25;;
61200;SDS011;47065;52.898;6.992;2022-11-20T02:49:24;22.45;;;13.25;;
61200;SDS011;47065;52.898;6.992;2022-11-20T02:51:50;24.98;;;13.75;;
61200;SDS011;47065;52.898;6.992;2022-11-20T02:54:16;23.83;;;13.45;;
61200;SDS011;47065;52.898;6.992;2022-11-20T02:56:41;22.00;;;13.00;;
61200;SDS011;47065;52.898;6.992;2022-11-20T02:59:07;23.02;;;13.27;;
61200;SDS011;47065;52.898;6.992;2022-11-20T03:01:33;22.88;;;13.52;;
61200;SDS011;47065;52.898;6.992;2022-11-20T03:03:58;28.40;;;13.95;;
61200;SDS011;47065;52.898;6.992;2022-11-20T03:06:24;21.23;;;13.90;;
61200;SDS011;47065;52.898;6.992;2022-11-20T03:08:49;21.92;;;12.27;;
61200;SDS011;47065;52.898;6.992;2022-11-20T03:11:15;22.02;;;12.63;;
61200;SDS011;47065;52.898;6.992;2022-11-20T03:13:41;22.08;;;13.23;;
61200;SDS011;47065;52.898;6.992;2022-11-20T03:16:08;21.63;;;12.25;;
61200;SDS011;47065;52.898;6.992;2022-11-20T03:18:36;24.20;;;12.57;;
61200;SDS011;47065;52.898;6.992;2022-11-20T03:21:02;26.60;;;13.07;;
61200;SDS011;47065;52.898;6.992;2022-11-20T03:23:29;24.67;;;13.07;;
61200;SDS011;47065;52.898;6.992;2022-11-20T03:26:06;20.52;;;12.30;;
61200;SDS011;47065;52.898;6.992;2022-11-20T03:28:32;19.35;;;11.82;;
61200;SDS011;47065;52.898;6.992;2022-11-20T03:30:58;24.65;;;12.68;;
61200;SDS011;47065;52.898;6.992;2022-11-20T03:33:39;19.77;;;11.65;;
61200;SDS011;47065;52.898;6.992;2022-11-20T03:36:07;22.58;;;11.60;;
61200;SDS011;47065;52.898;6.992;2022-11-20T03:38:35;16.13;;;10.52;;
61200;SDS011;47065;52.898;6.992;2022-11-20T03:41:02;19.83;;;11.15;;
61200;SDS011;47065;52.898;6.992;2022-11-20T03:43:32;20.98;;;11.73;;
61200;SDS011;47065;52.898;6.992;2022-11-20T03:45:58;17.98;;;11.45;;
61200;SDS011;47065;52.898;6.992;2022-11-20T03:48:24;24.20;;;12.32;;
61200;SDS011;47065;52.898;6.992;2022-11-20T03:50:50;23.00;;;12.40;;
61200;SDS011;47065;52.898;6.992;2022-11-20T03:53:17;22.17;;;11.82;;
61200;SDS011;47065;52.898;6.992;2022-11-20T03:55:42;18.83;;;11.48;;
61200;SDS011;47065;52.898;6.992;2022-11-20T03:58:08;18.13;;;10.88;;
61200;SDS011;47065;52.898;6.992;2022-11-20T04:00:35;21.77;;;12.50;;
61200;SDS011;47065;52.898;6.992;2022-11-20T04:03:01;23.58;;;12.23;;
61200;SDS011;47065;52.898;6.992;2022-11-20T04:05:27;22.35;;;12.35;;
61200;SDS011;47065;52.898;6.992;2022-11-20T04:07:53;22.77;;;14.27;;
61200;SDS011;47065;52.898;6.992;2022-11-20T04:10:19;21.67;;;12.65;;
61200;SDS011;47065;52.898;6.992;2022-11-20T04:12:45;18.52;;;11.68;;
61200;SDS011;47065;52.898;6.992;2022-11-20T04:15:10;22.20;;;12.55;;
61200;SDS011;47065;52.898;6.992;2022-11-20T04:17:36;19.30;;;10.85;;
61200;SDS011;47065;52.898;6.992;2022-11-20T04:20:02;19.50;;;10.15;;
61200;SDS011;47065;52.898;6.992;2022-11-20T04:22:28;15.98;;;10.57;;
61200;SDS011;47065;52.898;6.992;2022-11-20T04:24:53;20.35;;;10.88;;
61200;SDS011;47065;52.898;6.992;2022-11-20T04:27:19;21.05;;;12.77;;
61200;SDS011;47065;52.898;6.992;2022-11-20T04:29:44;19.30;;;11.10;;
61200;SDS011;47065;52.898;6.992;2022-11-20T04:32:10;16.35;;;10.02;;
61200;SDS011;47065;52.898;6.992;2022-11-20T04:34:36;20.58;;;11.93;;
61200;SDS011;47065;52.898;6.992;2022-11-20T04:37:01;22.08;;;11.90;;
61200;SDS011;47065;52.898;6.992;2022-11-20T04:39:27;18.00;;;11.30;;
61200;SDS011;47065;52.898;6.992;2022-11-20T04:41:52;20.90;;;11.90;;
61200;SDS011;47065;52.898;6.992;2022-11-20T04:44:38;19.10;;;11.27;;
61200;SDS011;47065;52.898;6.992;2022-11-20T04:47:03;19.13;;;10.98;;
61200;SDS011;47065;52.898;6.992;2022-11-20T04:49:29;19.42;;;11.00;;
61200;SDS011;47065;52.898;6.992;2022-11-20T04:51:56;18.75;;;10.95;;
61200;SDS011;47065;52.898;6.992;2022-11-20T04:54:22;21.27;;;11.35;;
61200;SDS011;47065;52.898;6.992;2022-11-20T04:56:48;19.73;;;12.23;;
61200;SDS011;47065;52.898;6.992;2022-11-20T04:59:13;19.05;;;11.55;;
61200;SDS011;47065;52.898;6.992;2022-11-20T05:01:39;17.27;;;10.52;;
61200;SDS011;47065;52.898;6.992;2022-11-20T05:04:05;16.92;;;10.68;;
61200;SDS011;47065;52.898;6.992;2022-11-20T05:06:31;19.17;;;11.15;;
61200;SDS011;47065;52.898;6.992;2022-11-20T05:08:57;20.33;;;12.35;;
61200;SDS011;47065;52.898;6.992;2022-11-20T05:11:23;17.65;;;10.95;;
61200;SDS011;47065;52.898;6.992;2022-11-20T05:13:49;17.25;;;11.23;;
61200;SDS011;47065;52.898;6.992;2022-11-20T05:16:17;19.05;;;11.38;;
61200;SDS011;47065;52.898;6.992;2022-11-20T05:18:44;18.50;;;11.25;;
61200;SDS011;47065;52.898;6.992;2022-11-20T05:21:10;17.52;;;10.75;;
61200;SDS011;47065;52.898;6.992;2022-11-20T05:23:38;20.65;;;11.05;;
61200;SDS011;47065;52.898;6.992;2022-11-20T05:26:04;16.95;;;10.10;;
61200;SDS011;47065;52.898;6.992;2022-11-20T05:28:32;18.38;;;10.63;;
61200;SDS011;47065;52.898;6.992;2022-11-20T05:31:08;18.35;;;10.55;;
61200;SDS011;47065;52.898;6.992;2022-11-20T05:33:35;16.40;;;10.38;;
61200;SDS011;47065;52.898;6.992;2022-11-20T05:36:02;15.07;;;9.95;;
61200;SDS011;47065;52.898;6.992;2022-11-20T05:38:29;25.15;;;12.27;;
61200;SDS011;47065;52.898;6.992;2022-11-20T05:40:54;25.77;;;12.32;;
61200;SDS011;47065;52.898;6.992;2022-11-20T05:43:20;20.63;;;11.68;;
61200;SDS011;47065;52.898;6.992;2022-11-20T05:45:55;20.05;;;11.10;;
61200;SDS011;47065;52.898;6.992;2022-11-20T05:50:47;20.92;;;12.32;;
61200;SDS011;47065;52.898;6.992;2022-11-20T05:53:13;17.58;;;10.88;;
61200;SDS011;47065;52.898;6.992;2022-11-20T05:55:38;18.30;;;11.00;;
61200;SDS011;47065;52.898;6.992;2022-11-20T05:58:04;16.88;;;10.60;;
61200;SDS011;47065;52.898;6.992;2022-11-20T06:00:30;18.67;;;11.55;;
61200;SDS011;47065;52.898;6.992;2022-11-20T06:02:55;18.38;;;11.05;;
61200;SDS011;47065;52.898;6.992;2022-11-20T06:05:21;18.75;;;11.23;;
61200;SDS011;47065;52.898;6.992;2022-11-20T06:07:47;17.88;;;10.25;;
61200;SDS011;47065;52.898;6.992;2022-11-20T06:10:12;14.98;;;9.48;;
61200;SDS011;47065;52.898;6.992;2022-11-20T06:12:38;15.88;;;10.43;;
61200;SDS011;47065;52.898;6.992;2022-11-20T06:15:04;18.67;;;10.10;;
61200;SDS011;47065;52.898;6.992;2022-11-20T06:17:31;17.55;;;11.07;;
61200;SDS011;47065;52.898;6.992;2022-11-20T06:19:56;16.17;;;10.00;;
61200;SDS011;47065;52.898;6.992;2022-11-20T06:22:22;17.10;;;10.18;;
61200;SDS011;47065;52.898;6.992;2022-11-20T06:24:47;18.73;;;10.73;;
61200;SDS011;47065;52.898;6.992;2022-11-20T06:27:13;17.10;;;10.02;;
61200;SDS011;47065;52.898;6.992;2022-11-20T06:29:39;19.75;;;10.90;;
61200;SDS011;47065;52.898;6.992;2022-11-20T06:32:04;17.70;;;10.40;;
61200;SDS011;47065;52.898;6.992;2022-11-20T06:34:30;18.70;;;11.40;;
61200;SDS011;47065;52.898;6.992;2022-11-20T06:36:55;17.15;;;9.52;;
61200;SDS011;47065;52.898;6.992;2022-11-20T06:39:21;14.65;;;9.35;;
61200;SDS011;47065;52.898;6.992;2022-11-20T06:41:47;17.85;;;9.07;;
61200;SDS011;47065;52.898;6.992;2022-11-20T06:44:12;19.85;;;10.77;;
61200;SDS011;47065;52.898;6.992;2022-11-20T06:46:38;17.15;;;10.35;;
61200;SDS011;47065;52.898;6.992;2022-11-20T06:49:03;19.25;;;10.18;;
61200;SDS011;47065;52.898;6.992;2022-11-20T06:51:29;14.82;;;9.40;;
61200;SDS011;47065;52.898;6.992;2022-11-20T06:53:55;17.67;;;10.23;;
61200;SDS011;47065;52.898;6.992;2022-11-20T06:56:20;18.08;;;11.38;;
61200;SDS011;47065;52.898;6.992;2022-11-20T06:58:46;19.60;;;11.13;;
61200;SDS011;47065;52.898;6.992;2022-11-20T07:01:12;18.45;;;10.85;;
61200;SDS011;47065;52.898;6.992;2022-11-20T07:03:39;19.90;;;11.00;;
61200;SDS011;47065;52.898;6.992;2022-11-20T07:06:05;17.88;;;10.10;;
61200;SDS011;47065;52.898;6.992;2022-11-20T07:08:31;21.10;;;11.68;;
61200;SDS011;47065;52.898;6.992;2022-11-20T07:10:59;19.30;;;11.15;;
61200;SDS011;47065;52.898;6.992;2022-11-20T07:13:26;20.23;;;10.98;;
61200;SDS011;47065;52.898;6.992;2022-11-20T07:15:52;19.92;;;10.57;;
61200;SDS011;47065;52.898;6.992;2022-11-20T07:18:18;19.98;;;11.52;;
61200;SDS011;47065;52.898;6.992;2022-11-20T07:20:44;19.83;;;10.45;;
61200;SDS011;47065;52.898;6.992;2022-11-20T07:23:09;22.25;;;12.18;;
61200;SDS011;47065;52.898;6.992;2022-11-20T07:25:35;21.10;;;11.15;;
61200;SDS011;47065;52.898;6.992;2022-11-20T07:28:01;20.38;;;11.95;;
61200;SDS011;47065;52.898;6.992;2022-11-20T07:30:27;21.70;;;12.73;;
61200;SDS011;47065;52.898;6.992;2022-11-20T07:32:53;20.75;;;11.70;;
61200;SDS011;47065;52.898;6.992;2022-11-20T07:35:20;19.13;;;11.80;;
61200;SDS011;47065;52.898;6.992;2022-11-20T07:37:46;18.90;;;12.60;;
61200;SDS011;47065;52.898;6.992;2022-11-20T07:40:13;17.80;;;11.30;;
61200;SDS011;47065;52.898;6.992;2022-11-20T07:42:47;19.73;;;12.40;;
61200;SDS011;47065;52.898;6.992;2022-11-20T07:45:20;20.20;;;10.82;;
61200;SDS011;47065;52.898;6.992;2022-11-20T07:47:47;19.10;;;12.20;;
61200;SDS011;47065;52.898;6.992;2022-11-20T07:50:13;18.30;;;11.50;;
61200;SDS011;47065;52.898;6.992;2022-11-20T07:52:39;20.95;;;12.63;;
61200;SDS011;47065;52.898;6.992;2022-11-20T07:55:05;18.58;;;11.20;;
61200;SDS011;47065;52.898;6.992;2022-11-20T07:57:32;20.15;;;10.98;;
61200;SDS011;47065;52.898;6.992;2022-11-20T07:59:57;22.85;;;12.27;;
61200;SDS011;47065;52.898;6.992;2022-11-20T08:02:23;20.00;;;11.70;;
61200;SDS011;47065;52.898;6.992;2022-11-20T08:04:48;20.45;;;12.02;;
61200;SDS011;47065;52.898;6.992;2022-11-20T08:07:14;20.92;;;11.85;;
61200;SDS011;47065;52.898;6.992;2022-11-20T08:09:40;23.33;;;13.15;;
61200;SDS011;47065;52.898;6.992;2022-11-20T08:12:05;20.83;;;11.48;;
61200;SDS011;47065;52.898;6.992;2022-11-20T08:14:49;22.60;;;12.07;;
61200;SDS011;47065;52.898;6.992;2022-11-20T08:17:15;21.00;;;11.48;;
61200;SDS011;47065;52.898;6.992;2022-11-20T08:19:41;22.48;;;13.48;;
61200;SDS011;47065;52.898;6.992;2022-11-20T08:22:06;18.60;;;11.75;;
61200;SDS011;47065;52.898;6.992;2022-11-20T08:24:32;18.42;;;11.00;;
61200;SDS011;47065;52.898;6.992;2022-11-20T08:26:58;17.67;;;10.80;;
61200;SDS011;47065;52.898;6.992;2022-11-20T08:29:24;19.25;;;10.20;;
61200;SDS011;47065;52.898;6.992;2022-11-20T08:31:52;23.17;;;11.07;;
61200;SDS011;47065;52.898;6.992;2022-11-20T08:34:18;22.77;;;11.50;;
61200;SDS011;47065;52.898;6.992;2022-11-20T08:36:44;18.95;;;10.50;;
61200;SDS011;47065;52.898;6.992;2022-11-20T08:39:13;21.67;;;11.20;;
61200;SDS011;47065;52.898;6.992;2022-11-20T08:41:39;19.88;;;12.07;;
61200;SDS011;47065;52.898;6.992;2022-11-20T08:44:05;19.67;;;11.05;;
61200;SDS011;47065;52.898;6.992;2022-11-20T08:46:33;16.80;;;10.77;;
61200;SDS011;47065;52.898;6.992;2022-11-20T08:49:04;19.20;;;10.15;;
61200;SDS011;47065;52.898;6.992;2022-11-20T08:51:31;19.08;;;10.85;;
61200;SDS011;47065;52.898;6.992;2022-11-20T08:53:57;19.40;;;11.50;;
61200;SDS011;47065;52.898;6.992;2022-11-20T08:56:22;18.52;;;10.55;;
61200;SDS011;47065;52.898;6.992;2022-11-20T08:58:49;20.80;;;10.98;;
61200;SDS011;47065;52.898;6.992;2022-11-20T09:01:16;20.42;;;11.05;;
61200;SDS011;47065;52.898;6.992;2022-11-20T09:03:42;18.35;;;11.10;;
61200;SDS011;47065;52.898;6.992;2022-11-20T09:06:07;16.88;;;10.55;;
61200;SDS011;47065;52.898;6.992;2022-11-20T09:08:33;18.60;;;10.05;;
61200;SDS011;47065;52.898;6.992;2022-11-20T09:11:01;18.02;;;10.00;;
61200;SDS011;47065;52.898;6.992;2022-11-20T09:13:27;15.63;;;10.38;;
61200;SDS011;47065;52.898;6.992;2022-11-20T09:15:58;17.42;;;11.10;;
61200;SDS011;47065;52.898;6.992;2022-11-20T09:18:26;16.92;;;11.07;;
61200;SDS011;47065;52.898;6.992;2022-11-20T09:20:56;19.63;;;9.93;;
61200;SDS011;47065;52.898;6.992;2022-11-20T09:23:23;20.73;;;10.68;;
61200;SDS011;47065;52.898;6.992;2022-11-20T09:25:49;22.80;;;11.73;;
61200;SDS011;47065;52.898;6.992;2022-11-20T09:28:15;18.20;;;10.82;;
61200;SDS011;47065;52.898;6.992;2022-11-20T09:30:42;21.10;;;11.25;;
61200;SDS011;47065;52.898;6.992;2022-11-20T09:33:07;16.92;;;9.52;;
61200;SDS011;47065;52.898;6.992;2022-11-20T09:35:33;20.08;;;10.55;;
61200;SDS011;47065;52.898;6.992;2022-11-20T09:38:03;15.77;;;9.70;;
61200;SDS011;47065;52.898;6.992;2022-11-20T09:40:32;18.25;;;10.73;;
61200;SDS011;47065;52.898;6.992;2022-11-20T09:43:14;16.10;;;10.85;;
61200;SDS011;47065;52.898;6.992;2022-11-20T09:54:06;13.73;;;8.23;;
61200;SDS011;47065;52.898;6.992;2022-11-20T09:56:53;20.55;;;10.32;;
61200;SDS011;47065;52.898;6.992;2022-11-20T09:59:30;17.00;;;10.02;;
61200;SDS011;47065;52.898;6.992;2022-11-20T10:02:08;22.80;;;12.25;;
61200;SDS011;47065;52.898;6.992;2022-11-20T10:04:52;17.10;;;9.90;;
61200;SDS011;47065;52.898;6.992;2022-11-20T10:07:26;17.52;;;9.98;;
61200;SDS011;47065;52.898;6.992;2022-11-20T10:10:00;17.48;;;9.63;;
61200;SDS011;47065;52.898;6.992;2022-11-20T10:17:55;17.27;;;9.13;;
61200;SDS011;47065;52.898;6.992;2022-11-20T10:23:37;15.93;;;9.98;;
61200;SDS011;47065;52.898;6.992;2022-11-20T10:26:22;16.35;;;9.75;;
61200;SDS011;47065;52.898;6.992;2022-11-20T10:29:13;14.88;;;9.52;;
61200;SDS011;47065;52.898;6.992;2022-11-20T10:31:42;19.15;;;10.13;;
61200;SDS011;47065;52.898;6.992;2022-11-20T10:34:23;15.80;;;10.18;;
61200;SDS011;47065;52.898;6.992;2022-11-20T10:37:02;18.17;;;9.52;;
61200;SDS011;47065;52.898;6.992;2022-11-20T10:39:42;19.27;;;9.45;;
61200;SDS011;47065;52.898;6.992;2022-11-20T10:42:32;13.10;;;8.73;;
61200;SDS011;47065;52.898;6.992;2022-11-20T10:45:16;15.65;;;9.60;;
61200;SDS011;47065;52.898;6.992;2022-11-20T10:48:43;21.58;;;10.10;;
61200;SDS011;47065;52.898;6.992;2022-11-20T10:50:56;16.15;;;9.38;;
61200;SDS011;47065;52.898;6.992;2022-11-20T10:53:47;13.63;;;8.88;;
61200;SDS011;47065;52.898;6.992;2022-11-20T10:57:02;14.50;;;9.73;;
61200;SDS011;47065;52.898;6.992;2022-11-20T10:59:35;13.60;;;7.15;;
61200;SDS011;47065;52.898;6.992;2022-11-20T11:04:40;15.40;;;9.05;;
61200;SDS011;47065;52.898;6.992;2022-11-20T11:07:12;13.45;;;8.20;;
61200;SDS011;47065;52.898;6.992;2022-11-20T11:09:44;10.93;;;7.35;;
61200;SDS011;47065;52.898;6.992;2022-11-20T11:12:13;12.55;;;7.38;;
61200;SDS011;47065;52.898;6.992;2022-11-20T11:14:52;12.93;;;7.68;;
61200;SDS011;47065;52.898;6.992;2022-11-20T11:17:27;13.48;;;9.52;;
61200;SDS011;47065;52.898;6.992;2022-11-20T11:22:24;12.32;;;8.02;;
61200;SDS011;47065;52.898;6.992;2022-11-20T11:24:51;12.35;;;8.45;;
61200;SDS011;47065;52.898;6.992;2022-11-20T11:27:17;12.00;;;7.63;;
61200;SDS011;47065;52.898;6.992;2022-11-20T11:29:43;15.05;;;8.52;;
61200;SDS011;47065;52.898;6.992;2022-11-20T11:32:14;13.70;;;7.82;;
61200;SDS011;47065;52.898;6.992;2022-11-20T11:34:43;12.57;;;8.10;;
61200;SDS011;47065;52.898;6.992;2022-11-20T11:37:19;13.88;;;8.15;;
61200;SDS011;47065;52.898;6.992;2022-11-20T11:39:46;13.52;;;8.68;;
61200;SDS011;47065;52.898;6.992;2022-11-20T11:42:15;13.98;;;9.57;;
61200;SDS011;47065;52.898;6.992;2022-11-20T11:44:44;15.85;;;8.48;;
61200;SDS011;47065;52.898;6.992;2022-11-20T11:47:33;12.65;;;7.65;;
61200;SDS011;47065;52.898;6.992;2022-11-20T12:03:59;12.07;;;7.70;;
61200;SDS011;47065;52.898;6.992;2022-11-20T12:06:39;12.30;;;8.20;;
61200;SDS011;47065;52.898;6.992;2022-11-20T12:09:09;14.02;;;8.63;;
61200;SDS011;47065;52.898;6.992;2022-11-20T12:11:43;13.52;;;8.50;;
61200;SDS011;47065;52.898;6.992;2022-11-20T12:14:22;14.85;;;8.02;;
61200;SDS011;47065;52.898;6.992;2022-11-20T12:16:57;10.70;;;7.35;;
61200;SDS011;47065;52.898;6.992;2022-11-20T12:19:22;11.40;;;7.03;;
61200;SDS011;47065;52.898;6.992;2022-11-20T12:46:16;9.45;;;6.75;;
61200;SDS011;47065;52.898;6.992;2022-11-20T12:54:25;9.95;;;7.05;;
61200;SDS011;47065;52.898;6.992;2022-11-20T12:57:20;13.90;;;8.48;;
61200;SDS011;47065;52.898;6.992;2022-11-20T13:00:09;15.43;;;8.82;;
61200;SDS011;47065;52.898;6.992;2022-11-20T13:05:21;11.20;;;7.45;;
61200;SDS011;47065;52.898;6.992;2022-11-20T13:07:56;12.45;;;8.27;;
61200;SDS011;47065;52.898;6.992;2022-11-20T13:13:07;16.55;;;9.10;;
61200;SDS011;47065;52.898;6.992;2022-11-20T13:18:36;12.98;;;8.75;;
61200;SDS011;47065;52.898;6.992;2022-11-20T13:24:07;11.77;;;7.25;;
61200;SDS011;47065;52.898;6.992;2022-11-20T13:26:45;14.02;;;8.57;;
61200;SDS011;47065;52.898;6.992;2022-11-20T13:29:12;14.15;;;8.70;;
61200;SDS011;47065;52.898;6.992;2022-11-20T13:31:44;11.52;;;8.18;;
61200;SDS011;47065;52.898;6.992;2022-11-20T13:34:12;13.80;;;8.88;;
61200;SDS011;47065;52.898;6.992;2022-11-20T13:36:48;12.10;;;8.23;;
61200;SDS011;47065;52.898;6.992;2022-11-20T13:39:25;14.63;;;8.48;;
61200;SDS011;47065;52.898;6.992;2022-11-20T13:42:02;15.82;;;8.02;;
61200;SDS011;47065;52.898;6.992;2022-11-20T13:44:47;13.27;;;8.68;;
61200;SDS011;47065;52.898;6.992;2022-11-20T13:47:26;10.77;;;7.68;;
61200;SDS011;47065;52.898;6.992;2022-11-20T13:49:53;15.32;;;9.00;;
61200;SDS011;47065;52.898;6.992;2022-11-20T13:55:12;27.17;;;16.52;;
61200;SDS011;47065;52.898;6.992;2022-11-20T13:58:05;19.63;;;11.57;;
61200;SDS011;47065;52.898;6.992;2022-11-20T14:00:42;15.10;;;9.65;;
61200;SDS011;47065;52.898;6.992;2022-11-20T14:03:19;14.77;;;9.98;;
61200;SDS011;47065;52.898;6.992;2022-11-20T14:06:05;12.25;;;8.40;;
61200;SDS011;47065;52.898;6.992;2022-11-20T14:08:47;11.57;;;8.85;;
61200;SDS011;47065;52.898;6.992;2022-11-20T14:11:14;14.20;;;8.55;;
61200;SDS011;47065;52.898;6.992;2022-11-20T14:13:59;14.20;;;8.77;;
61200;SDS011;47065;52.898;6.992;2022-11-20T14:16:25;12.93;;;8.40;;
61200;SDS011;47065;52.898;6.992;2022-11-20T14:18:53;11.85;;;8.95;;
61200;SDS011;47065;52.898;6.992;2022-11-20T14:21:29;13.13;;;8.63;;
61200;SDS011;47065;52.898;6.992;2022-11-20T14:24:05;13.50;;;9.18;;
61200;SDS011;47065;52.898;6.992;2022-11-20T14:26:32;16.13;;;10.05;;
61200;SDS011;47065;52.898;6.992;2022-11-20T14:28:58;14.85;;;9.18;;
61200;SDS011;47065;52.898;6.992;2022-11-20T14:31:25;16.00;;;9.23;;
61200;SDS011;47065;52.898;6.992;2022-11-20T14:33:52;14.07;;;9.75;;
61200;SDS011;47065;52.898;6.992;2022-11-20T14:36:20;15.77;;;9.35;;
61200;SDS011;47065;52.898;6.992;2022-11-20T14:38:48;14.75;;;8.82;;
61200;SDS011;47065;52.898;6.992;2022-11-20T14:41:21;12.43;;;8.55;;
61200;SDS011;47065;52.898;6.992;2022-11-20T14:43:50;12.65;;;9.32;;
61200;SDS011;47065;52.898;6.992;2022-11-20T14:46:21;12.00;;;8.63;;
61200;SDS011;47065;52.898;6.992;2022-11-20T14:48:49;12.18;;;8.45;;
61200;SDS011;47065;52.898;6.992;2022-11-20T14:51:27;14.93;;;8.60;;
61200;SDS011;47065;52.898;6.992;2022-11-20T14:54:19;15.30;;;9.63;;
61200;SDS011;47065;52.898;6.992;2022-11-20T14:57:05;12.30;;;8.75;;
61200;SDS011;47065;52.898;6.992;2022-11-20T14:59:44;13.55;;;9.13;;
61200;SDS011;47065;52.898;6.992;2022-11-20T15:02:10;12.15;;;8.82;;
61200;SDS011;47065;52.898;6.992;2022-11-20T15:04:44;13.77;;;9.02;;
61200;SDS011;47065;52.898;6.992;2022-11-20T15:07:25;14.00;;;9.90;;
61200;SDS011;47065;52.898;6.992;2022-11-20T15:12:47;13.80;;;9.05;;
61200;SDS011;47065;52.898;6.992;2022-11-20T15:15:25;15.38;;;9.98;;
61200;SDS011;47065;52.898;6.992;2022-11-20T15:18:17;15.23;;;9.57;;
61200;SDS011;47065;52.898;6.992;2022-11-20T15:20:45;15.23;;;9.45;;
61200;SDS011;47065;52.898;6.992;2022-11-20T15:23:12;16.73;;;9.60;;
61200;SDS011;47065;52.898;6.992;2022-11-20T15:25:40;17.08;;;10.68;;
61200;SDS011;47065;52.898;6.992;2022-11-20T15:28:13;15.43;;;11.20;;
61200;SDS011;47065;52.898;6.992;2022-11-20T15:30:43;16.15;;;10.43;;
61200;SDS011;47065;52.898;6.992;2022-11-20T15:33:13;14.18;;;10.02;;
61200;SDS011;47065;52.898;6.992;2022-11-20T15:35:39;16.15;;;10.95;;
61200;SDS011;47065;52.898;6.992;2022-11-20T15:38:05;17.33;;;11.10;;
61200;SDS011;47065;52.898;6.992;2022-11-20T15:40:31;20.55;;;12.23;;
61200;SDS011;47065;52.898;6.992;2022-11-20T15:42:57;18.80;;;12.30;;
61200;SDS011;47065;52.898;6.992;2022-11-20T15:45:38;20.15;;;10.05;;
61200;SDS011;47065;52.898;6.992;2022-11-20T15:48:17;17.30;;;12.05;;
61200;SDS011;47065;52.898;6.992;2022-11-20T15:50:54;16.55;;;10.77;;
61200;SDS011;47065;52.898;6.992;2022-11-20T15:53:21;18.63;;;11.20;;
61200;SDS011;47065;52.898;6.992;2022-11-20T15:55:46;18.40;;;11.48;;
61200;SDS011;47065;52.898;6.992;2022-11-20T15:58:12;15.20;;;10.00;;
61200;SDS011;47065;52.898;6.992;2022-11-20T16:00:37;13.68;;;9.50;;
61200;SDS011;47065;52.898;6.992;2022-11-20T16:03:03;15.38;;;10.48;;
61200;SDS011;47065;52.898;6.992;2022-11-20T16:05:29;17.23;;;10.75;;
61200;SDS011;47065;52.898;6.992;2022-11-20T16:07:55;19.45;;;11.40;;
61200;SDS011;47065;52.898;6.992;2022-11-20T16:10:21;17.15;;;10.07;;